Time;durP1;ratioP1;P1;durP2;ratioP2;P2;SDS_P1;SDS_P2;PMS_P1;PMS_P2;Temp;Humidity;BMP_temperature;BMP_pressure;BME280_temperature;BME280_humidity;BME280_pressure;Samples;Min_cycle;Max_cycle;Signal;HPM_P1;HPM_P2
2023/07/06 00:02:22;;;;;;;2.60;1.65;;;;;;;12.41;78.25;101475.22;7396393;19;19926;-81
2023/07/06 00:04:56;;;;;;;3.88;1.85;;;;;;;12.38;78.54;101472.88;7384929;19;19919;-82
2023/07/06 00:07:25;;;;;;;4.13;2.17;;;;;;;12.37;78.24;101474.75;7386222;19;19922;-81
2023/07/06 00:09:54;;;;;;;7.30;2.38;;;;;;;12.35;78.43;101473.19;7381931;19;21017;-82
2023/07/06 00:12:23;;;;;;;9.77;2.33;;;;;;;12.32;78.81;101479.81;7379952;19;19926;-82
2023/07/06 00:14:53;;;;;;;5.78;2.30;;;;;;;12.30;78.29;101481.00;7384179;19;19914;-81
2023/07/06 00:17:22;;;;;;;5.03;2.22;;;;;;;12.24;78.50;101480.69;7385712;19;19955;-82
2023/07/06 00:19:51;;;;;;;4.57;2.10;;;;;;;12.21;78.80;101478.31;7379570;19;20226;-82
2023/07/06 00:22:27;;;;;;;7.47;2.53;;;;;;;12.12;79.29;101476.63;7378560;19;19922;-84
2023/07/06 00:24:59;;;;;;;4.47;2.30;;;;;;;12.09;78.97;101482.41;7381406;19;20007;-81
2023/07/06 00:27:33;;;;;;;4.53;2.05;;;;;;;12.03;79.59;101482.25;7382070;19;19922;-82
2023/07/06 00:30:15;;;;;;;4.90;2.50;;;;;;;12.00;79.49;101485.28;7383149;19;20229;-81
2023/07/06 00:32:47;;;;;;;7.60;3.03;;;;;;;11.98;79.94;101484.63;7378871;19;19930;-82
2023/07/06 00:35:16;;;;;;;5.00;2.33;;;;;;;11.99;79.55;101483.59;7375062;19;20385;-82
2023/07/06 00:37:49;;;;;;;5.40;2.10;;;;;;;11.97;79.87;101486.47;7379993;19;19922;-82
2023/07/06 00:40:18;;;;;;;4.70;2.88;;;;;;;11.96;79.88;101492.03;7381806;19;19922;-82
2023/07/06 00:43:03;;;;;;;4.68;2.58;;;;;;;11.92;80.57;101488.00;7379708;19;19925;-83
2023/07/06 00:45:40;;;;;;;4.97;2.50;;;;;;;11.95;80.29;101487.66;7383120;19;19926;-83
2023/07/06 00:48:20;;;;;;;4.85;2.53;;;;;;;11.92;80.76;101485.28;7379662;19;20343;-82
2023/07/06 00:50:55;;;;;;;5.72;3.10;;;;;;;11.90;80.29;101488.19;7382394;19;19923;-82
2023/07/06 00:53:33;;;;;;;4.85;2.63;;;;;;;11.89;80.88;101489.19;7379899;19;20371;-82
2023/07/06 00:56:18;;;;;;;;;;;;;;;;;;;;;
2023/07/06 00:59:05;;;;;;;6.18;3.45;;;;;;;11.83;80.77;101490.69;7378649;19;19926;-83
2023/07/06 01:01:36;;;;;;;8.13;2.90;;;;;;;11.79;81.14;101488.50;7378696;19;19918;-84
2023/07/06 01:04:11;;;;;;;9.40;3.78;;;;;;;11.76;81.04;101497.81;7381595;19;20301;-81
2023/07/06 01:06:55;;;;;;;7.78;3.08;;;;;;;11.74;80.99;101507.91;7382429;19;19918;-82
2023/07/06 01:09:29;;;;;;;8.20;3.08;;;;;;;11.71;81.23;101501.97;7376257;19;21128;-81
2023/07/06 01:11:58;;;;;;;9.20;3.03;;;;;;;11.68;81.07;101497.78;7380030;19;19925;-81
2023/07/06 01:14:29;;;;;;;7.68;2.85;;;;;;;11.66;81.39;101507.88;7383305;19;19918;-81
2023/07/06 01:17:05;;;;;;;6.13;2.60;;;;;;;11.64;81.41;101511.78;7384471;19;19960;-81
2023/07/06 01:19:55;;;;;;;5.40;3.03;;;;;;;11.54;82.49;101509.22;7380047;19;19964;-82
2023/07/06 01:22:47;;;;;;;4.90;2.88;;;;;;;11.51;82.26;101517.66;7379138;19;19973;-81
2023/07/06 01:25:45;;;;;;;8.50;3.60;;;;;;;11.46;83.49;101506.53;7393315;19;20339;-83
2023/07/06 01:28:35;;;;;;;6.03;3.30;;;;;;;11.47;82.72;101515.47;7377850;19;19969;-83
2023/07/06 01:31:34;;;;;;;6.13;3.47;;;;;;;11.44;83.16;101511.22;7379089;19;20038;-83
2023/07/06 01:34:12;;;;;;;5.35;3.05;;;;;;;11.48;82.61;101512.59;7379399;19;20314;-83
2023/07/06 01:36:49;;;;;;;6.30;2.90;;;;;;;11.49;82.92;101511.59;7378719;19;19925;-84
2023/07/06 01:39:20;;;;;;;8.32;3.67;;;;;;;11.49;83.17;101513.44;7390266;19;20276;-83
2023/07/06 01:42:35;;;;;;;7.65;3.45;;;;;;;11.44;84.23;101518.47;7379225;19;19926;-83
2023/07/06 01:45:08;;;;;;;7.97;3.50;;;;;;;11.49;83.42;101519.69;7378338;19;20319;-81
2023/07/06 01:47:46;;;;;;;9.48;3.80;;;;;;;11.50;83.34;101517.81;7377735;19;19921;-83
2023/07/06 01:50:16;;;;;;;10.77;3.47;;;;;;;11.52;83.26;101523.91;7381684;19;19929;-83
2023/07/06 01:53:07;;;;;;;8.30;3.97;;;;;;;11.49;84.37;101529.63;7378007;19;19929;-83
2023/07/06 01:55:49;;;;;;;7.68;3.90;;;;;;;11.54;83.61;101516.47;7379886;19;19961;-83
2023/07/06 01:58:33;;;;;;;9.73;4.30;;;;;;;11.56;83.68;101509.88;7378340;19;19922;-81
2023/07/06 02:01:18;;;;;;;8.10;3.70;;;;;;;11.60;83.97;101521.22;7378665;19;19964;-82
2023/07/06 02:03:56;;;;;;;9.35;3.95;;;;;;;11.61;83.64;101515.63;7378720;19;19918;-83
2023/07/06 02:06:28;;;;;;;11.02;4.05;;;;;;;11.64;84.08;101512.63;7379131;19;19927;-82
2023/07/06 02:09:05;;;;;;;;;;;;;;;11.54;86.42;101513.78;7380923;19;19997;-81
2023/07/06 02:11:35;;;;;;;7.80;4.13;;;;;;;11.66;84.14;101521.38;7377873;19;19923;-81
2023/07/06 02:14:03;;;;;;;11.32;4.07;;;;;;;11.71;84.15;101512.78;7378525;19;19915;-81
2023/07/06 02:16:41;;;;;;;10.32;4.32;;;;;;;11.73;84.93;101513.50;7384098;19;20215;-81
2023/07/06 02:19:16;;;;;;;7.60;4.53;;;;;;;11.77;84.78;101513.00;7380566;19;19915;-81
2023/07/06 02:21:51;;;;;;;10.30;4.60;;;;;;;11.82;84.23;101516.00;7377250;19;19925;-81
2023/07/06 02:24:21;;;;;;;5.72;4.13;;;;;;;11.83;84.06;101506.91;7377949;19;19929;-81
2023/07/06 02:26:50;;;;;;;7.78;4.35;;;;;;;11.87;84.13;101510.09;7378473;19;19922;-81
2023/07/06 02:29:20;;;;;;;6.45;4.50;;;;;;;11.91;84.29;101516.03;7379170;19;19918;-81
2023/07/06 02:31:53;;;;;;;9.70;3.70;;;;;;;11.92;85.20;101518.53;7377450;19;19929;-81
2023/07/06 02:34:28;;;;;;;6.82;4.55;;;;;;;11.95;84.88;101520.88;7381506;19;19942;-80
2023/07/06 02:37:10;;;;;;;8.43;4.38;;;;;;;11.97;84.69;101518.88;7376580;19;20660;-81
2023/07/06 02:39:38;;;;;;;10.05;4.00;;;;;;;12.01;84.75;101513.97;7380274;19;19918;-81
2023/07/06 02:42:07;;;;;;;9.70;4.78;;;;;;;12.03;84.29;101520.91;7389829;19;19930;-82
2023/07/06 02:44:43;;;;;;;8.15;4.05;;;;;;;12.06;84.17;101515.16;7394146;19;19918;-81
2023/07/06 02:47:12;;;;;;;8.07;3.85;;;;;;;12.08;84.60;101520.41;7392181;19;19927;-80
2023/07/06 02:49:44;;;;;;;7.72;4.05;;;;;;;12.09;84.63;101512.09;7388269;19;19943;-81
2023/07/06 02:52:13;;;;;;;9.68;4.80;;;;;;;12.12;84.01;101513.63;7384291;19;22729;-81
2023/07/06 02:54:42;;;;;;;7.53;4.00;;;;;;;12.14;84.38;101523.25;7382871;19;19954;-81
2023/07/06 02:57:11;;;;;;;6.50;3.90;;;;;;;12.18;84.01;101527.28;7382349;19;19931;-81
2023/07/06 02:59:47;;;;;;;7.93;3.75;;;;;;;12.22;83.96;101533.19;7383050;19;19922;-81
2023/07/06 03:02:16;;;;;;;9.13;4.05;;;;;;;12.23;84.21;101537.56;7382203;19;19914;-81
2023/07/06 03:04:57;;;;;;;6.53;3.70;;;;;;;12.25;84.26;101532.84;7379805;19;19922;-81
2023/07/06 03:07:34;;;;;;;11.18;4.50;;;;;;;12.25;83.92;101536.38;7365209;19;19927;-81
2023/07/06 03:10:08;;;;;;;7.93;4.28;;;;;;;12.24;84.02;101539.28;7351209;19;19943;-81
2023/07/06 03:12:39;;;;;;;7.78;3.95;;;;;;;12.24;84.07;101537.41;7346490;19;19918;-81
2023/07/06 03:15:19;;;;;;;7.20;4.53;;;;;;;12.22;84.46;101538.59;7351186;19;21169;-82
2023/07/06 03:17:55;;;;;;;7.80;4.00;;;;;;;12.23;84.17;101540.28;7348481;19;19922;-81
2023/07/06 03:20:36;;;;;;;8.20;3.88;;;;;;;12.21;84.13;101539.59;7377333;19;20010;-81
2023/07/06 03:23:27;;;;;;;9.40;4.07;;;;;;;12.22;84.20;101546.69;7375897;19;19923;-81
2023/07/06 03:25:58;;;;;;;8.10;3.70;;;;;;;12.23;84.07;101540.28;7384120;19;19922;-83
2023/07/06 03:28:28;;;;;;;8.35;3.83;;;;;;;12.22;84.28;101544.84;7384729;19;19926;-83
2023/07/06 03:30:58;;;;;;;7.18;3.67;;;;;;;12.22;84.02;101539.44;7384192;19;19930;-84
2023/07/06 03:33:28;;;;;;;6.50;4.15;;;;;;;12.23;83.87;101546.53;7384487;19;20296;-83
2023/07/06 03:36:00;;;;;;;6.28;3.50;;;;;;;12.23;84.43;101541.13;7381844;19;19922;-81
2023/07/06 03:38:29;;;;;;;8.88;4.18;;;;;;;12.25;83.95;101549.06;7381723;19;19997;-81
2023/07/06 03:40:58;;;;;;;6.18;3.47;;;;;;;12.23;84.03;101546.53;7382691;19;19962;-81
2023/07/06 03:43:27;;;;;;;6.72;3.75;;;;;;;12.23;84.25;101551.09;7379512;19;19919;-81
2023/07/06 03:45:55;;;;;;;6.47;3.90;;;;;;;12.24;83.91;101555.47;7382869;19;19938;-81
2023/07/06 03:48:26;;;;;;;7.68;3.72;;;;;;;12.24;83.92;101556.31;7382739;19;19970;-81
2023/07/06 03:50:55;;;;;;;8.20;3.80;;;;;;;12.24;84.23;101564.44;7378629;19;20406;-81
2023/07/06 03:53:38;;;;;;;7.68;4.15;;;;;;;12.17;84.70;101559.84;7380666;19;19918;-81
2023/07/06 03:56:10;;;;;;;11.45;4.70;;;;;;;12.16;84.14;101558.19;7381331;19;19935;-83
2023/07/06 03:58:38;;;;;;;;;;;;;;;11.97;85.51;101556.69;7389011;19;19935;-83
2023/07/06 04:01:07;;;;;;;7.05;3.85;;;;;;;12.05;84.42;101555.81;7388492;19;19926;-80
2023/07/06 04:03:36;;;;;;;11.70;5.30;;;;;;;12.03;84.27;101566.81;7383166;19;20468;-81
2023/07/06 04:06:05;;;;;;;8.52;4.30;;;;;;;12.00;84.10;101564.44;7389170;19;19922;-80
2023/07/06 04:08:37;;;;;;;7.80;4.13;;;;;;;11.98;84.33;101561.06;7387243;19;19923;-81
2023/07/06 04:11:06;;;;;;;6.35;3.58;;;;;;;11.96;84.35;101565.78;7385305;19;20288;-79
2023/07/06 04:13:35;;;;;;;9.35;4.82;;;;;;;11.96;84.33;101564.94;7386551;19;19926;-82
2023/07/06 04:16:20;;;;;;;8.18;3.60;;;;;;;11.98;84.20;101574.56;7383498;19;20604;-83
2023/07/06 04:18:50;;;;;;;6.10;3.75;;;;;;;12.00;83.88;101572.53;7389898;19;19978;-83
2023/07/06 04:21:21;;;;;;;9.88;4.50;;;;;;;12.03;84.10;101571.38;7385848;19;19919;-82
2023/07/06 04:23:53;;;;;;;9.60;3.58;;;;;;;12.06;84.12;101571.88;7385047;19;20404;-83
2023/07/06 04:26:24;;;;;;;9.63;4.18;;;;;;;12.09;84.10;101563.41;7386828;19;19918;-83
2023/07/06 04:28:53;;;;;;;7.72;3.70;;;;;;;12.12;83.71;101570.34;7387172;19;19974;-83
2023/07/06 04:31:23;;;;;;;7.45;3.72;;;;;;;12.15;83.81;101561.91;7387489;19;19970;-81
2023/07/06 04:34:03;;;;;;;12.35;4.68;;;;;;;12.16;83.88;101567.16;7386265;19;19919;-81
2023/07/06 04:36:39;;;;;;;7.65;4.10;;;;;;;12.20;83.90;101582.00;7383786;19;19942;-81
2023/07/06 04:39:11;;;;;;;8.60;4.35;;;;;;;12.21;84.17;101574.72;7386518;19;19955;-81
2023/07/06 04:41:39;;;;;;;8.10;3.88;;;;;;;12.21;83.60;101575.56;7385365;19;19922;-81
2023/07/06 04:44:09;;;;;;;8.35;4.00;;;;;;;12.25;83.89;101585.00;7385565;19;19934;-81
2023/07/06 04:46:39;;;;;;;6.20;3.85;;;;;;;12.29;83.54;101590.94;7386469;19;19915;-81
2023/07/06 04:49:09;;;;;;;10.38;4.00;;;;;;;12.33;83.73;101588.72;7387945;19;19914;-81
2023/07/06 04:51:38;;;;;;;6.80;3.97;;;;;;;12.36;83.60;101591.09;7386128;19;19918;-81
2023/07/06 04:54:19;;;;;;;8.25;4.40;;;;;;;12.37;84.22;101590.06;7386498;19;19930;-81
2023/07/06 04:56:49;;;;;;;10.23;4.38;;;;;;;12.44;83.39;101594.63;7385656;19;19926;-81
2023/07/06 04:59:19;;;;;;;7.60;4.43;;;;;;;12.49;83.64;101589.53;7386210;19;19943;-81
2023/07/06 05:01:49;;;;;;;9.02;4.63;;;;;;;12.53;83.68;101590.88;7388407;19;19923;-80
2023/07/06 05:04:18;;;;;;;10.00;4.60;;;;;;;12.58;83.88;101587.66;7385845;19;19926;-81
2023/07/06 05:06:49;;;;;;;8.82;4.53;;;;;;;12.61;83.31;101593.56;7386367;19;19918;-81
2023/07/06 05:09:20;;;;;;;7.80;4.63;;;;;;;12.62;83.51;101597.97;7387649;19;20266;-80
2023/07/06 05:11:49;;;;;;;8.07;3.92;;;;;;;12.61;83.64;101601.69;7386097;19;19950;-79
2023/07/06 05:14:18;;;;;;;9.95;4.50;;;;;;;12.62;83.50;101595.25;7386450;19;20359;-83
2023/07/06 05:16:46;;;;;;;10.73;4.75;;;;;;;12.63;83.65;101601.50;7383680;19;19964;-82
2023/07/06 05:19:15;;;;;;;7.43;4.15;;;;;;;12.63;83.49;101602.38;7385722;19;19926;-82
2023/07/06 05:21:44;;;;;;;10.68;4.90;;;;;;;12.62;83.67;101606.06;7387156;19;20485;-80
2023/07/06 05:24:13;;;;;;;7.32;4.60;;;;;;;12.62;83.71;101606.06;7383002;19;20235;-82
2023/07/06 05:26:44;;;;;;;9.48;4.18;;;;;;;12.62;83.88;101606.06;7386230;19;19949;-83
2023/07/06 05:29:14;;;;;;;11.27;4.82;;;;;;;12.63;83.97;101599.66;7389316;19;19910;-83
2023/07/06 05:31:49;;;;;;;9.23;4.68;;;;;;;12.62;84.38;101613.34;7393565;19;19950;-81
2023/07/06 05:34:18;;;;;;;11.18;4.35;;;;;;;12.62;84.42;101600.66;7391790;19;20264;-80
2023/07/06 05:36:46;;;;;;;15.50;5.03;;;;;;;12.64;83.87;101603.22;7383458;19;20023;-80
2023/07/06 05:39:15;;;;;;;11.70;4.50;;;;;;;12.65;84.30;101600.31;7384129;19;19947;-80
2023/07/06 05:41:47;;;;;;;10.75;4.13;;;;;;;12.66;84.57;101604.72;7382356;19;19918;-82
2023/07/06 05:44:16;;;;;;;10.40;4.75;;;;;;;12.67;84.33;101619.91;7380435;19;19922;-81
2023/07/06 05:46:45;;;;;;;10.20;4.57;;;;;;;12.66;84.15;101612.81;7381504;19;19946;-84
2023/07/06 05:49:13;;;;;;;9.05;4.80;;;;;;;12.63;84.12;101618.59;7381746;19;20513;-79
2023/07/06 05:51:42;;;;;;;10.98;4.90;;;;;;;12.63;84.73;101606.91;7380468;19;19933;-79
2023/07/06 05:54:11;;;;;;;11.10;5.30;;;;;;;12.64;84.35;101616.72;7378894;19;19922;-79
2023/07/06 05:56:41;;;;;;;10.63;4.65;;;;;;;12.67;84.42;101617.22;7375700;19;19924;-76
2023/07/06 05:59:12;;;;;;;11.20;4.53;;;;;;;12.73;84.67;101619.22;7379106;19;19922;-76
2023/07/06 06:01:41;;;;;;;11.00;4.63;;;;;;;12.82;84.95;101617.34;7377637;19;19962;-77
2023/07/06 06:04:10;;;;;;;11.13;4.60;;;;;;;12.91;84.56;101613.59;7372248;19;20376;-76
2023/07/06 06:06:49;;;;;;;12.55;5.13;;;;;;;13.01;84.95;101616.09;7376647;19;19946;-87
2023/07/06 06:09:18;;;;;;;8.20;4.40;;;;;;;13.12;84.38;101619.28;7385067;19;20384;-84
2023/07/06 06:11:48;;;;;;;11.50;4.88;;;;;;;13.22;84.53;101626.34;7387169;19;20823;-85
2023/07/06 06:14:20;;;;;;;12.60;5.13;;;;;;;13.29;84.27;101620.06;7389002;19;19919;-87
2023/07/06 06:16:49;;;;;;;;;;;;;;;13.26;85.73;101630.41;7391929;19;19923;-87
2023/07/06 06:19:18;;;;;;;12.55;5.30;;;;;;;13.38;84.15;101628.97;7398850;19;19926;-87
2023/07/06 06:21:48;;;;;;;10.10;4.70;;;;;;;13.44;84.00;101639.97;7390380;19;19922;-79
2023/07/06 07:31:51;;;;;;;12.02;4.70;;;;;;;15.61;80.41;101689.72;7361053;19;19917;-70
2023/07/06 07:34:34;;;;;;;13.20;4.82;;;;;;;15.73;80.10;101690.06;7375074;19;19947;-69
2023/07/06 07:37:17;;;;;;;15.77;4.50;;;;;;;15.83;79.95;101687.91;7374313;19;20491;-69
2023/07/06 07:40:20;;;;;;;11.35;4.53;;;;;;;15.87;79.91;101698.19;7371921;19;19937;-69
2023/07/06 07:43:17;;;;;;;14.52;4.38;;;;;;;15.97;78.43;101700.59;7375234;19;20338;-69
2023/07/06 08:10:32;;;;;;;7.05;2.70;;;;;;;16.85;73.04;101700.19;7342719;19;19926;-84
2023/07/06 08:13:05;;;;;;;7.65;2.70;;;;;;;16.95;71.81;101697.97;7393034;19;19963;-83
2023/07/06 08:19:12;;;;;;;4.18;2.90;;;;;;;17.04;73.58;101710.38;7270154;19;19926;-84
2023/07/06 08:21:41;;;;;;;6.20;3.13;;;;;;;17.04;73.75;101704.13;7369620;19;20706;-77
2023/07/06 08:24:09;;;;;;;7.13;2.40;;;;;;;17.09;72.93;101712.50;7371334;19;19941;-77
2023/07/06 08:26:38;;;;;;;7.63;2.40;;;;;;;17.17;72.04;101713.19;7366358;19;19961;-86
2023/07/06 08:29:11;;;;;;;8.07;2.40;;;;;;;17.19;70.38;101708.41;7385192;19;20450;-82
2023/07/06 08:31:40;;;;;;;5.03;2.70;;;;;;;17.16;69.99;101706.09;7385481;19;19970;-86
2023/07/06 08:34:08;;;;;;;6.82;2.53;;;;;;;17.19;69.13;101708.41;7388875;19;19940;-89
2023/07/06 08:36:38;;;;;;;3.83;1.73;;;;;;;17.29;67.93;101715.38;7403077;19;19929;-91
2023/07/06 08:39:17;;;;;;;9.25;2.28;;;;;;;17.38;68.04;101719.63;7383758;19;19915;-86
2023/07/06 08:41:49;;;;;;;5.68;2.10;;;;;;;17.49;67.67;101717.16;7288593;19;19932;-82
2023/07/06 08:44:23;;;;;;;2.90;1.42;;;;;;;17.64;66.68;101714.34;7381917;19;19926;-85
2023/07/06 08:46:55;;;;;;;5.75;1.48;;;;;;;17.82;65.36;101722.78;7399331;19;19922;-88
2023/07/06 08:56:28;;;;;;;7.82;1.92;;;;;;;18.30;62.92;101736.34;7315265;19;20040;-87
2023/07/06 08:59:00;;;;;;;2.72;1.10;;;;;;;18.46;61.97;101730.53;7381077;19;19955;-89
2023/07/06 09:01:32;;;;;;;3.67;1.73;;;;;;;18.43;60.73;101739.09;7380025;19;20495;-90
2023/07/06 09:04:09;;;;;;;3.53;1.45;;;;;;;18.38;60.49;101742.44;7381042;19;19915;-92
2023/07/06 09:06:46;;;;;;;4.28;1.33;;;;;;;18.43;60.44;101729.03;7388764;19;19915;-88
2023/07/06 09:09:16;;;;;;;3.22;1.38;;;;;;;18.53;61.02;101731.41;7386205;19;19918;-90
2023/07/06 09:11:48;;;;;;;3.08;1.30;;;;;;;18.67;58.72;101730.38;7390743;19;19918;-89
2023/07/06 09:14:18;;;;;;;2.50;1.00;;;;;;;18.80;57.08;101732.25;7384665;19;20305;-89
2023/07/06 09:16:55;;;;;;;2.40;1.05;;;;;;;18.80;54.71;101730.38;7389423;19;19926;-93
2023/07/06 09:19:34;;;;;;;;;;;;;;;18.74;55.31;101733.94;7353552;19;19934;-88
2023/07/06 09:25:17;;;;;;;2.70;1.10;;;;;;;18.62;56.85;101735.59;7322914;19;19922;-78
2023/07/06 09:27:56;;;;;;;3.72;1.10;;;;;;;18.56;57.35;101730.97;7371556;19;19935;-88
2023/07/06 09:30:32;;;;;;;3.97;1.10;;;;;;;18.51;56.36;101737.00;7389610;19;19915;-88
2023/07/06 09:33:08;;;;;;;2.38;0.95;;;;;;;18.44;56.09;101748.97;7389671;19;19943;-88
2023/07/06 09:35:52;;;;;;;3.00;1.20;;;;;;;18.32;55.32;101743.28;7388104;19;19930;-89
2023/07/06 09:38:23;;;;;;;2.45;1.20;;;;;;;18.29;58.81;101754.63;7387380;19;21007;-91
2023/07/06 09:40:56;;;;;;;2.85;1.10;;;;;;;18.20;58.69;101758.59;7390986;19;19933;-94
2023/07/06 09:43:30;;;;;;;3.85;1.35;;;;;;;18.08;57.25;101752.88;7396289;19;19922;-94
2023/07/06 09:46:02;;;;;;;2.13;1.15;;;;;;;18.06;59.22;101759.59;7387694;19;19922;-77
2023/07/06 09:48:37;;;;;;;5.70;1.50;;;;;;;18.02;58.65;101761.03;7374854;19;19925;-80
2023/07/06 09:51:15;;;;;;;4.72;1.92;;;;;;;18.00;58.67;101757.66;7375547;19;19926;-80
2023/07/06 09:54:01;;;;;;;4.72;1.83;;;;;;;17.97;57.38;101755.34;7376211;19;19964;-87
2023/07/06 09:56:30;;;;;;;2.90;1.17;;;;;;;17.98;59.79;101766.06;7383113;19;19926;-92
2023/07/06 09:59:00;;;;;;;1.90;0.85;;;;;;;18.03;59.91;101763.53;7391528;19;19923;-91
2023/07/06 10:01:54;;;;;;;2.90;1.35;;;;;;;18.06;59.70;101760.44;7382472;19;19923;-92
2023/07/06 10:04:46;;;;;;;3.03;1.33;;;;;;;18.12;62.86;101762.31;7383924;19;19918;-89
2023/07/06 10:07:23;;;;;;;3.88;2.00;;;;;;;18.03;63.93;101757.28;7383777;19;19955;-89
2023/07/06 10:10:08;;;;;;;8.18;2.20;;;;;;;17.92;64.14;101775.03;7380802;19;20302;-89
2023/07/06 10:12:43;;;;;;;3.97;2.00;;;;;;;17.88;64.97;101781.09;7382232;19;20336;-88
2023/07/06 10:15:22;;;;;;;5.93;2.17;;;;;;;17.85;65.02;101778.78;7386504;19;19926;-89
2023/07/06 10:18:04;;;;;;;3.95;1.70;;;;;;;17.84;64.33;101774.38;7389959;19;19922;-89
2023/07/06 10:21:11;;;;;;;11.90;2.63;;;;;;;17.83;61.88;101778.97;7393146;19;19962;-90
2023/07/06 10:23:55;;;;;;;9.93;2.90;;;;;;;17.89;62.48;101780.91;7388549;19;19970;-89
2023/07/06 10:26:37;;;;;;;4.63;1.63;;;;;;;17.97;64.25;101783.47;7389868;19;20548;-90
2023/07/06 10:29:17;;;;;;;4.40;2.35;;;;;;;18.08;63.34;101785.59;7386058;19;19914;-87
2023/07/06 10:32:09;;;;;;;4.63;2.00;;;;;;;18.21;62.82;101783.97;7372950;19;20023;-87
2023/07/06 10:35:02;;;;;;;4.00;1.23;;;;;;;18.41;62.63;101782.13;7383847;19;20349;-86
2023/07/06 10:37:34;;;;;;;4.97;1.80;;;;;;;18.44;61.17;101785.28;7384927;19;20264;-86
2023/07/06 10:40:28;;;;;;;8.77;2.13;;;;;;;18.43;60.85;101785.47;7379584;19;19922;-86
2023/07/06 10:43:20;;;;;;;2.88;1.20;;;;;;;18.41;62.29;101782.13;7382760;19;19927;-86
2023/07/06 10:45:57;;;;;;;2.42;1.17;;;;;;;18.44;59.47;101784.44;7380586;19;19929;-86
2023/07/06 10:48:36;;;;;;;2.92;1.40;;;;;;;18.45;56.83;101792.44;7379275;19;19929;-86
2023/07/06 10:51:23;;;;;;;2.75;1.38;;;;;;;18.47;58.15;101792.22;7388353;19;19986;-86
2023/07/06 10:54:18;;;;;;;2.28;1.23;;;;;;;18.69;57.10;101792.91;7391887;19;20512;-86
2023/07/06 10:56:56;;;;;;;;;;;;;;;18.89;58.12;101791.91;7382159;19;20198;-86
2023/07/06 11:02:40;;;;;;;5.00;1.50;;;;;;;19.64;54.90;101798.78;7381365;19;20421;-85
2023/07/06 11:05:13;;;;;;;3.53;1.60;;;;;;;19.86;56.18;101797.47;7385114;19;19927;-88
2023/07/06 11:08:10;;;;;;;5.65;1.65;;;;;;;20.05;52.85;101794.88;7377694;19;19922;-86
2023/07/06 11:11:02;;;;;;;5.97;1.98;;;;;;;19.87;53.46;101787.38;7382852;19;20348;-86
2023/07/06 11:13:32;;;;;;;5.60;1.63;;;;;;;19.77;56.79;101792.44;7382111;19;19918;-87
2023/07/06 11:16:23;;;;;;;3.33;1.52;;;;;;;19.61;54.57;101791.03;7384372;19;19937;-86
2023/07/06 11:19:07;;;;;;;5.20;1.35;;;;;;;19.58;56.06;101790.63;7384388;19;20328;-87
2023/07/06 11:21:48;;;;;;;3.78;1.33;;;;;;;19.50;54.80;101799.06;7385945;19;19922;-87
2023/07/06 11:24:25;;;;;;;3.03;1.30;;;;;;;19.46;55.24;101806.81;7388040;19;19910;-87
2023/07/06 11:27:06;;;;;;;5.03;1.75;;;;;;;19.52;54.87;101805.97;7382416;19;19930;-87
2023/07/06 11:29:35;;;;;;;4.30;1.00;;;;;;;19.66;56.11;101809.53;7389374;19;19953;-85
2023/07/06 11:32:19;;;;;;;3.20;1.30;;;;;;;20.02;53.68;101803.53;7381462;19;19922;-84
2023/07/06 11:35:03;;;;;;;5.20;1.40;;;;;;;20.09;53.13;101802.44;7383046;19;19952;-84
2023/07/06 11:37:56;;;;;;;4.68;1.15;;;;;;;20.06;52.85;101791.94;7382365;19;20603;-84
2023/07/06 11:40:38;;;;;;;3.60;1.55;;;;;;;20.04;51.25;101790.47;7380847;19;19926;-83
2023/07/06 11:43:40;;;;;;;7.60;1.20;;;;;;;20.22;50.69;101798.78;7380582;19;20278;-84
2023/07/06 11:46:32;;;;;;;3.20;1.38;;;;;;;20.46;50.86;101824.59;7379950;19;20502;-82
2023/07/06 11:49:20;;;;;;;2.70;1.23;;;;;;;20.69;49.67;101806.56;7374333;19;20615;-83
2023/07/06 11:51:51;;;;;;;3.00;1.27;;;;;;;20.92;51.36;101810.63;7382664;19;19942;-89
2023/07/06 11:54:40;;;;;;;5.40;1.27;;;;;;;21.14;50.53;101798.25;7375384;19;19922;-80
2023/07/06 11:57:28;;;;;;;3.58;1.20;;;;;;;21.49;47.34;101804.84;7379543;19;20315;-90
2023/07/06 12:00:33;;;;;;;4.07;1.10;;;;;;;21.77;46.57;101795.28;7386050;19;19974;-90
2023/07/06 12:03:08;;;;;;;4.32;1.08;;;;;;;22.20;47.41;101809.78;7383051;19;20474;-88
2023/07/06 12:05:58;;;;;;;2.85;1.00;;;;;;;22.53;45.82;101814.81;7378974;19;20385;-91
2023/07/06 12:08:35;;;;;;;4.38;1.20;;;;;;;22.77;46.12;101810.28;7382991;19;19922;-90
2023/07/06 12:11:15;;;;;;;3.38;1.20;;;;;;;22.75;44.76;101818.75;7381299;19;19914;-88
2023/07/06 12:13:48;;;;;;;1.63;0.82;;;;;;;22.56;45.61;101814.34;7384849;19;19939;-87
2023/07/06 12:16:22;;;;;;;4.70;1.20;;;;;;;22.14;45.05;101822.50;7385462;19;20324;-88
2023/07/06 12:18:59;;;;;;;3.28;1.17;;;;;;;21.73;45.34;101811.38;7378721;19;19954;-84
2023/07/06 12:21:33;;;;;;;4.13;1.00;;;;;;;21.42;46.46;101817.78;7383535;19;19926;-87
2023/07/06 12:24:02;;;;;;;2.53;1.20;;;;;;;21.19;48.16;101825.78;7376884;19;19933;-88
2023/07/06 12:26:32;;;;;;;1.45;1.02;;;;;;;21.04;48.68;101812.41;7396977;19;19923;-84
2023/07/06 12:29:02;;;;;;;3.45;1.02;;;;;;;20.95;47.86;101823.84;7373957;19;19946;-87
2023/07/06 12:31:34;;;;;;;1.55;0.80;;;;;;;20.88;48.36;101831.31;7368094;19;19943;-81
2023/07/06 12:34:06;;;;;;;2.35;1.02;;;;;;;20.76;49.32;101836.63;7371370;19;19922;-79
2023/07/06 12:36:46;;;;;;;1.52;0.82;;;;;;;20.68;49.77;101831.41;7389752;19;20352;-76
2023/07/06 12:39:18;;;;;;;3.53;1.02;;;;;;;20.57;50.47;101835.72;7392756;19;19932;-76
2023/07/06 12:41:47;;;;;;;3.75;0.80;;;;;;;20.54;49.88;101832.53;7395960;19;19926;-78
2023/07/06 12:44:21;;;;;;;7.97;1.40;;;;;;;20.43;48.95;101836.81;7395620;19;19946;-79
2023/07/06 12:46:54;;;;;;;0.93;0.82;;;;;;;20.44;49.38;101843.16;7394584;19;19919;-79
2023/07/06 12:49:25;;;;;;;2.42;0.90;;;;;;;20.46;50.14;101843.75;7393505;19;19918;-79
2023/07/06 12:51:56;;;;;;;2.65;1.23;;;;;;;20.49;50.40;101840.59;7377032;19;19944;-77
2023/07/06 12:54:26;;;;;;;2.10;1.08;;;;;;;20.52;49.29;101842.88;7374663;19;20654;-78
2023/07/06 12:57:03;;;;;;;3.70;1.45;;;;;;;20.55;49.20;101843.28;7376289;19;19933;-78
2023/07/06 12:59:37;;;;;;;1.50;0.88;;;;;;;20.63;47.33;101839.44;7374253;19;19923;-78
2023/07/06 13:02:23;;;;;;;3.90;1.05;;;;;;;20.73;46.94;101840.66;7376603;19;19923;-77
2023/07/06 13:04:53;;;;;;;1.08;0.85;;;;;;;20.93;47.91;101851.47;7371908;19;19982;-75
2023/07/06 13:07:27;;;;;;;2.72;0.90;;;;;;;21.08;47.67;101848.41;7369550;19;20659;-76
2023/07/06 13:09:56;;;;;;;2.75;0.80;;;;;;;21.19;46.84;101851.31;7380192;19;19925;-82
2023/07/06 13:12:27;;;;;;;1.50;0.80;;;;;;;21.36;46.17;101839.81;7379598;19;20291;-82
2023/07/06 13:14:56;;;;;;;4.38;0.88;;;;;;;21.55;46.06;101847.81;7382814;19;20283;-79
2023/07/06 13:17:29;;;;;;;5.30;1.40;;;;;;;21.69;43.98;101843.91;7377962;19;20784;-82
2023/07/06 13:19:59;;;;;;;5.32;1.23;;;;;;;22.29;45.00;101846.81;7374226;19;20287;-80
2023/07/06 13:22:29;;;;;;;3.03;1.02;;;;;;;22.75;43.15;101851.69;7374923;19;19950;-81
2023/07/06 13:25:00;;;;;;;3.13;1.55;;;;;;;23.11;41.13;101848.00;7370649;19;19915;-79
2023/07/06 13:27:30;;;;;;;1.98;0.80;;;;;;;23.42;40.32;101841.34;7373078;19;20362;-78
2023/07/06 13:30:08;;;;;;;2.30;0.85;;;;;;;23.77;41.19;101839.41;7373140;19;19994;-80
2023/07/06 13:32:49;;;;;;;3.45;1.30;;;;;;;24.15;38.12;101844.44;7379038;19;20374;-83
2023/07/06 13:35:19;;;;;;;4.88;1.75;;;;;;;24.47;38.30;101844.78;7377697;19;19930;-83
2023/07/06 13:37:48;;;;;;;3.03;0.93;;;;;;;24.71;36.64;101848.31;7378858;19;19946;-85
2023/07/06 13:40:21;;;;;;;1.90;0.73;;;;;;;24.89;37.11;101841.78;7380426;19;19922;-84
2023/07/06 13:43:15;;;;;;;1.98;0.68;;;;;;;24.40;37.32;101842.19;7366721;19;20197;-79
2023/07/06 13:45:44;;;;;;;4.80;1.38;;;;;;;24.16;39.84;101839.78;7373643;19;19918;-83
2023/07/06 13:48:17;;;;;;;4.32;1.08;;;;;;;23.69;39.82;101841.69;7371568;19;20300;-85
2023/07/06 13:50:51;;;;;;;5.18;1.60;;;;;;;23.42;41.57;101847.69;7372396;19;20316;-85
2023/07/06 13:53:20;;;;;;;4.07;1.00;;;;;;;23.51;42.27;101845.44;7369532;19;20264;-84
2023/07/06 13:55:54;;;;;;;4.45;1.10;;;;;;;23.94;40.89;101843.13;7376019;19;20360;-84